EGQS

RAF Lossiemouth Airport

Lossiemouth, United Kingdom
METAR EGQS 210350Z 32008KT 3000 -DZ SCT005 OVC012 13/12 Q1013 YLO1
Observed Flight Rules
Jul-21 @ 03:50 UTC (33 minutes ago) Instrument Flight Rules
Wind Visibility Clouds Conditions
320° at 8 knots 2,993 meters
  • Scattered at 500' AGL
  • Overcast at 1,200' AGL
  • Light Drizzle
Temperatures Readings
Current 13°C / 55°F
Dewpoint 12°C / 54°F
Humidity 94%
Altimeter 29.91" Hg
Pressure 1013 hPa
Elevation 13
METAR EGQS 210350Z 32008KT 3000 -DZ SCT005 OVC012 13/12 Q1013 YLO1
Observed Flight Rules
Jul-21 @ 03:50 UTC
(33 minutes ago)
IFR
Wind Visibility
320° at 8 knots 2,993 meters
Clouds
  • Scattered at 500' AGL
  • Overcast at 1,200' AGL
Conditions
  • Light Drizzle
Temperature Dewpoint
13°C / 55°F 12°C / 54°F
Humidity Altimeter Pressure
94% 29.91" Hg 1013 hPa